sensor_id;sensor_type;location;lat;lon;timestamp;pressure;altitude;pressure_sealevel;temperature;humidity
30216;BME280;17028;47.642;8.070;2022-09-21T00:02:23;94277.00;;;10.95;56.63
30216;BME280;17028;47.642;8.070;2022-09-21T00:07:24;94277.09;;;10.91;56.81
30216;BME280;17028;47.642;8.070;2022-09-21T00:12:25;94271.31;;;10.85;56.85
30216;BME280;17028;47.642;8.070;2022-09-21T00:17:26;94275.41;;;10.81;57.11
30216;BME280;17028;47.642;8.070;2022-09-21T00:22:27;94280.78;;;10.75;57.24
30216;BME280;17028;47.642;8.070;2022-09-21T00:27:30;94282.34;;;10.76;57.22
30216;BME280;17028;47.642;8.070;2022-09-21T00:32:32;94278.78;;;10.76;57.30
30216;BME280;17028;47.642;8.070;2022-09-21T00:37:34;94272.19;;;10.69;57.58
30216;BME280;17028;47.642;8.070;2022-09-21T00:42:35;94275.53;;;10.64;57.68
30216;BME280;17028;47.642;8.070;2022-09-21T00:47:41;94276.41;;;10.61;57.77
30216;BME280;17028;47.642;8.070;2022-09-21T00:52:48;94274.50;;;10.58;57.58
30216;BME280;17028;47.642;8.070;2022-09-21T00:57:54;94270.63;;;10.56;57.89
30216;BME280;17028;47.642;8.070;2022-09-21T01:02:57;94279.00;;;10.56;58.03
30216;BME280;17028;47.642;8.070;2022-09-21T01:08:03;94270.38;;;10.50;58.02
30216;BME280;17028;47.642;8.070;2022-09-21T01:18:57;94272.16;;;10.44;58.25
30216;BME280;17028;47.642;8.070;2022-09-21T01:24:18;94262.31;;;10.39;58.33
30216;BME280;17028;47.642;8.070;2022-09-21T01:29:45;94262.53;;;10.32;58.61
30216;BME280;17028;47.642;8.070;2022-09-21T01:35:07;94267.59;;;10.20;59.04
30216;BME280;17028;47.642;8.070;2022-09-21T01:40:31;94268.06;;;10.19;59.03
30216;BME280;17028;47.642;8.070;2022-09-21T01:45:37;94277.31;;;10.16;59.20
30216;BME280;17028;47.642;8.070;2022-09-21T01:50:44;94275.81;;;10.11;59.30
30216;BME280;17028;47.642;8.070;2022-09-21T01:55:55;94272.81;;;10.06;59.55
30216;BME280;17028;47.642;8.070;2022-09-21T02:00:58;94275.44;;;9.96;59.84
30216;BME280;17028;47.642;8.070;2022-09-21T02:05:59;94276.97;;;9.84;60.46
30216;BME280;17028;47.642;8.070;2022-09-21T02:11:02;94274.47;;;9.74;61.11
30216;BME280;17028;47.642;8.070;2022-09-21T02:21:17;94261.28;;;9.61;61.43
30216;BME280;17028;47.642;8.070;2022-09-21T02:26:26;94254.31;;;9.53;61.81
30216;BME280;17028;47.642;8.070;2022-09-21T02:47:11;94254.44;;;9.49;62.04
30216;BME280;17028;47.642;8.070;2022-09-21T02:52:15;94258.22;;;9.56;61.92
30216;BME280;17028;47.642;8.070;2022-09-21T02:57:19;94251.44;;;9.57;61.87
30216;BME280;17028;47.642;8.070;2022-09-21T03:02:21;94254.75;;;9.51;61.89
30216;BME280;17028;47.642;8.070;2022-09-21T03:07:22;94252.84;;;9.48;61.91
30216;BME280;17028;47.642;8.070;2022-09-21T03:12:23;94249.72;;;9.46;61.86
30216;BME280;17028;47.642;8.070;2022-09-21T03:17:25;94242.84;;;9.34;62.26
30216;BME280;17028;47.642;8.070;2022-09-21T03:22:27;94248.19;;;9.29;62.61
30216;BME280;17028;47.642;8.070;2022-09-21T03:27:28;94244.78;;;9.21;62.94
30216;BME280;17028;47.642;8.070;2022-09-21T03:32:29;94252.44;;;9.17;63.34
30216;BME280;17028;47.642;8.070;2022-09-21T03:37:30;94246.72;;;9.08;63.72
30216;BME280;17028;47.642;8.070;2022-09-21T03:42:31;94249.16;;;9.06;63.81
30216;BME280;17028;47.642;8.070;2022-09-21T03:47:33;94254.81;;;9.02;64.09
30216;BME280;17028;47.642;8.070;2022-09-21T03:52:34;94244.56;;;8.99;64.25
30216;BME280;17028;47.642;8.070;2022-09-21T03:57:37;94242.28;;;8.94;64.52
30216;BME280;17028;47.642;8.070;2022-09-21T04:02:39;94248.69;;;8.91;64.54
30216;BME280;17028;47.642;8.070;2022-09-21T04:07:41;94243.31;;;8.83;65.00
30216;BME280;17028;47.642;8.070;2022-09-21T04:12:43;94238.63;;;8.80;65.08
30216;BME280;17028;47.642;8.070;2022-09-21T04:17:45;94246.97;;;8.80;65.10
30216;BME280;17028;47.642;8.070;2022-09-21T04:22:46;94245.03;;;8.77;65.20
30216;BME280;17028;47.642;8.070;2022-09-21T04:27:47;94241.56;;;8.73;65.09
30216;BME280;17028;47.642;8.070;2022-09-21T04:32:48;94244.72;;;8.75;64.91
30216;BME280;17028;47.642;8.070;2022-09-21T04:37:53;94244.03;;;8.71;64.85
30216;BME280;17028;47.642;8.070;2022-09-21T04:42:55;94240.25;;;8.61;65.14
30216;BME280;17028;47.642;8.070;2022-09-21T04:47:56;94243.03;;;8.61;64.99
30216;BME280;17028;47.642;8.070;2022-09-21T04:52:57;94246.25;;;8.60;64.96
30216;BME280;17028;47.642;8.070;2022-09-21T04:57:58;94254.75;;;8.52;65.11
30216;BME280;17028;47.642;8.070;2022-09-21T05:02:59;94254.75;;;8.52;65.00
30216;BME280;17028;47.642;8.070;2022-09-21T05:08:00;94253.19;;;8.51;64.87
30216;BME280;17028;47.642;8.070;2022-09-21T05:13:01;94258.03;;;8.47;64.88
30216;BME280;17028;47.642;8.070;2022-09-21T05:18:02;94261.31;;;8.42;65.00
30216;BME280;17028;47.642;8.070;2022-09-21T05:23:03;94261.25;;;8.46;64.89
30216;BME280;17028;47.642;8.070;2022-09-21T05:28:04;94266.50;;;8.40;64.92
30216;BME280;17028;47.642;8.070;2022-09-21T05:33:07;94268.06;;;8.41;64.87
30216;BME280;17028;47.642;8.070;2022-09-21T05:38:17;94268.88;;;8.42;65.07
30216;BME280;17028;47.642;8.070;2022-09-21T05:43:19;94270.84;;;8.41;64.91
30216;BME280;17028;47.642;8.070;2022-09-21T05:48:22;94268.44;;;8.43;64.96
30216;BME280;17028;47.642;8.070;2022-09-21T05:58:55;94277.75;;;8.53;64.79
30216;BME280;17028;47.642;8.070;2022-09-21T06:04:01;94281.59;;;8.59;64.66
30216;BME280;17028;47.642;8.070;2022-09-21T06:09:02;94281.38;;;8.70;64.34
30216;BME280;17028;47.642;8.070;2022-09-21T06:14:03;94280.69;;;8.82;63.99
30216;BME280;17028;47.642;8.070;2022-09-21T06:19:04;94279.72;;;8.89;63.64
30216;BME280;17028;47.642;8.070;2022-09-21T06:24:05;94277.94;;;8.99;63.34
30216;BME280;17028;47.642;8.070;2022-09-21T06:29:06;94277.75;;;9.06;63.12
30216;BME280;17028;47.642;8.070;2022-09-21T06:34:07;94277.22;;;9.11;62.90
30216;BME280;17028;47.642;8.070;2022-09-21T06:39:08;94270.19;;;9.23;62.77
30216;BME280;17028;47.642;8.070;2022-09-21T06:44:09;94275.84;;;9.36;62.86
30216;BME280;17028;47.642;8.070;2022-09-21T06:49:10;94275.22;;;9.45;62.94
30216;BME280;17028;47.642;8.070;2022-09-21T06:54:11;94278.94;;;9.55;62.66
30216;BME280;17028;47.642;8.070;2022-09-21T06:59:12;94273.00;;;9.69;62.31
30216;BME280;17028;47.642;8.070;2022-09-21T07:04:13;94280.63;;;9.81;61.93
30216;BME280;17028;47.642;8.070;2022-09-21T07:09:14;94287.81;;;9.95;61.78
30216;BME280;17028;47.642;8.070;2022-09-21T07:14:15;94287.63;;;10.02;61.37
30216;BME280;17028;47.642;8.070;2022-09-21T07:19:16;94288.63;;;10.09;61.27
30216;BME280;17028;47.642;8.070;2022-09-21T07:24:17;94286.56;;;10.26;60.76
30216;BME280;17028;47.642;8.070;2022-09-21T07:29:18;94292.38;;;10.31;60.57
30216;BME280;17028;47.642;8.070;2022-09-21T07:34:19;94292.09;;;10.42;60.13
30216;BME280;17028;47.642;8.070;2022-09-21T07:39:20;94293.34;;;10.54;59.72
30216;BME280;17028;47.642;8.070;2022-09-21T07:44:21;94290.38;;;10.61;59.45
30216;BME280;17028;47.642;8.070;2022-09-21T07:49:22;94286.91;;;10.70;58.95
30216;BME280;17028;47.642;8.070;2022-09-21T07:54:23;94304.53;;;10.67;58.53
30216;BME280;17028;47.642;8.070;2022-09-21T07:59:24;94290.16;;;10.81;58.49
30216;BME280;17028;47.642;8.070;2022-09-21T08:04:25;94288.81;;;10.86;59.71
30216;BME280;17028;47.642;8.070;2022-09-21T08:09:26;94291.72;;;11.08;58.18
30216;BME280;17028;47.642;8.070;2022-09-21T08:14:27;94291.59;;;11.25;58.75
30216;BME280;17028;47.642;8.070;2022-09-21T08:19:29;94287.22;;;11.49;57.37
30216;BME280;17028;47.642;8.070;2022-09-21T08:24:30;94286.63;;;11.67;56.92
30216;BME280;17028;47.642;8.070;2022-09-21T08:29:31;94285.91;;;11.76;56.51
30216;BME280;17028;47.642;8.070;2022-09-21T08:34:32;94288.66;;;11.89;55.95
30216;BME280;17028;47.642;8.070;2022-09-21T08:39:33;94289.88;;;12.01;55.24
30216;BME280;17028;47.642;8.070;2022-09-21T08:44:46;94297.19;;;12.21;55.28
30216;BME280;17028;47.642;8.070;2022-09-21T08:49:51;94287.94;;;12.33;54.20
30216;BME280;17028;47.642;8.070;2022-09-21T08:55:05;94292.22;;;12.47;53.22
30216;BME280;17028;47.642;8.070;2022-09-21T09:00:14;94288.97;;;12.48;52.58
30216;BME280;17028;47.642;8.070;2022-09-21T09:05:26;94288.44;;;12.63;52.67
30216;BME280;17028;47.642;8.070;2022-09-21T09:10:53;94292.59;;;12.80;51.90
30216;BME280;17028;47.642;8.070;2022-09-21T09:16:24;94290.19;;;13.01;52.16
30216;BME280;17028;47.642;8.070;2022-09-21T09:21:37;94288.50;;;13.03;51.39
30216;BME280;17028;47.642;8.070;2022-09-21T09:26:52;94282.75;;;13.07;52.31
30216;BME280;17028;47.642;8.070;2022-09-21T09:31:57;94272.00;;;13.37;51.86
30216;BME280;17028;47.642;8.070;2022-09-21T09:37:08;94270.19;;;13.71;51.72
30216;BME280;17028;47.642;8.070;2022-09-21T09:42:19;94270.22;;;13.99;49.04
30216;BME280;17028;47.642;8.070;2022-09-21T09:52:30;94270.63;;;14.62;47.35
30216;BME280;17028;47.642;8.070;2022-09-21T09:57:32;94249.59;;;14.76;46.31
30216;BME280;17028;47.642;8.070;2022-09-21T10:02:51;94258.03;;;14.67;45.01
30216;BME280;17028;47.642;8.070;2022-09-21T10:07:52;94251.47;;;14.70;45.38
30216;BME280;17028;47.642;8.070;2022-09-21T10:12:55;94248.94;;;14.81;44.76
30216;BME280;17028;47.642;8.070;2022-09-21T10:18:14;94244.25;;;14.78;43.64
30216;BME280;17028;47.642;8.070;2022-09-21T10:23:16;94246.66;;;14.71;44.24
30216;BME280;17028;47.642;8.070;2022-09-21T10:28:19;94235.88;;;14.69;44.36
30216;BME280;17028;47.642;8.070;2022-09-21T10:33:22;94222.81;;;14.99;43.56
30216;BME280;17028;47.642;8.070;2022-09-21T10:38:26;94226.19;;;15.13;42.75
30216;BME280;17028;47.642;8.070;2022-09-21T10:43:35;94224.25;;;15.28;42.35
30216;BME280;17028;47.642;8.070;2022-09-21T10:48:45;94213.44;;;15.36;41.93
30216;BME280;17028;47.642;8.070;2022-09-21T10:53:47;94220.38;;;15.50;42.08
30216;BME280;17028;47.642;8.070;2022-09-21T10:59:16;94211.00;;;15.53;40.39
30216;BME280;17028;47.642;8.070;2022-09-21T11:04:25;94207.16;;;15.65;40.59
30216;BME280;17028;47.642;8.070;2022-09-21T11:09:40;94204.94;;;15.94;39.71
30216;BME280;17028;47.642;8.070;2022-09-21T11:15:02;94208.75;;;16.20;39.31
30216;BME280;17028;47.642;8.070;2022-09-21T11:20:17;94207.44;;;16.31;39.38
30216;BME280;17028;47.642;8.070;2022-09-21T11:25:27;94205.00;;;16.53;38.94
30216;BME280;17028;47.642;8.070;2022-09-21T11:30:54;94207.16;;;16.59;38.51
30216;BME280;17028;47.642;8.070;2022-09-21T11:41:17;94197.63;;;16.86;38.53
30216;BME280;17028;47.642;8.070;2022-09-21T11:46:30;94193.63;;;16.78;40.06
30216;BME280;17028;47.642;8.070;2022-09-21T11:52:56;94191.50;;;16.88;39.15
30216;BME280;17028;47.642;8.070;2022-09-21T11:57:54;94183.06;;;17.02;38.68
30216;BME280;17028;47.642;8.070;2022-09-21T12:08:50;94172.75;;;16.84;38.72
30216;BME280;17028;47.642;8.070;2022-09-21T12:24:32;94171.44;;;16.50;37.17
30216;BME280;17028;47.642;8.070;2022-09-21T12:29:41;94164.06;;;16.38;37.66
30216;BME280;17028;47.642;8.070;2022-09-21T12:35:01;94154.06;;;16.51;39.24
30216;BME280;17028;47.642;8.070;2022-09-21T12:45:41;94147.25;;;16.73;38.75
30216;BME280;17028;47.642;8.070;2022-09-21T12:50:51;94156.00;;;16.75;38.03
30216;BME280;17028;47.642;8.070;2022-09-21T12:56:04;94149.94;;;16.82;37.69
30216;BME280;17028;47.642;8.070;2022-09-21T13:16:55;94135.28;;;16.93;37.09
30216;BME280;17028;47.642;8.070;2022-09-21T13:27:13;94133.91;;;16.89;38.01
30216;BME280;17028;47.642;8.070;2022-09-21T13:47:35;94133.06;;;16.82;37.43
30216;BME280;17028;47.642;8.070;2022-09-21T13:52:44;94130.25;;;16.82;37.22
30216;BME280;17028;47.642;8.070;2022-09-21T13:57:48;94132.19;;;16.76;37.86
30216;BME280;17028;47.642;8.070;2022-09-21T14:08:04;94117.44;;;16.66;37.71
30216;BME280;17028;47.642;8.070;2022-09-21T14:13:23;94132.22;;;16.61;38.47
30216;BME280;17028;47.642;8.070;2022-09-21T14:18:36;94133.34;;;16.69;37.42
30216;BME280;17028;47.642;8.070;2022-09-21T14:23:38;94123.69;;;16.56;37.78
30216;BME280;17028;47.642;8.070;2022-09-21T14:28:45;94130.38;;;16.43;39.37
30216;BME280;17028;47.642;8.070;2022-09-21T14:33:53;94127.78;;;16.25;38.63
30216;BME280;17028;47.642;8.070;2022-09-21T14:38:57;94123.13;;;16.22;38.35
30216;BME280;17028;47.642;8.070;2022-09-21T14:44:00;94134.38;;;16.22;37.97
30216;BME280;17028;47.642;8.070;2022-09-21T14:49:07;94123.50;;;16.29;38.19
30216;BME280;17028;47.642;8.070;2022-09-21T15:05:12;94114.84;;;16.18;37.85
30216;BME280;17028;47.642;8.070;2022-09-21T15:10:52;94127.50;;;16.23;38.61
30216;BME280;17028;47.642;8.070;2022-09-21T15:16:23;94115.16;;;16.05;37.38
30216;BME280;17028;47.642;8.070;2022-09-21T15:21:27;94117.88;;;15.99;38.29
30216;BME280;17028;47.642;8.070;2022-09-21T15:26:31;94126.03;;;15.97;39.54
30216;BME280;17028;47.642;8.070;2022-09-21T15:31:35;94119.13;;;15.98;39.41
30216;BME280;17028;47.642;8.070;2022-09-21T15:36:41;94125.84;;;16.01;39.05
30216;BME280;17028;47.642;8.070;2022-09-21T15:41:44;94123.97;;;15.98;40.57
30216;BME280;17028;47.642;8.070;2022-09-21T15:46:47;94129.41;;;15.86;39.68
30216;BME280;17028;47.642;8.070;2022-09-21T15:57:36;94136.94;;;15.80;40.26
30216;BME280;17028;47.642;8.070;2022-09-21T16:02:41;94133.53;;;15.76;40.98
30216;BME280;17028;47.642;8.070;2022-09-21T16:07:44;94138.72;;;15.68;41.64
30216;BME280;17028;47.642;8.070;2022-09-21T16:12:45;94141.19;;;15.51;41.95
30216;BME280;17028;47.642;8.070;2022-09-21T16:18:00;94145.56;;;15.52;40.98
30216;BME280;17028;47.642;8.070;2022-09-21T16:23:05;94144.50;;;15.50;41.56
30216;BME280;17028;47.642;8.070;2022-09-21T16:38:37;94155.53;;;15.14;42.80
30216;BME280;17028;47.642;8.070;2022-09-21T16:43:39;94167.34;;;15.18;42.95
30216;BME280;17028;47.642;8.070;2022-09-21T16:48:43;94166.88;;;15.20;43.32
30216;BME280;17028;47.642;8.070;2022-09-21T16:53:44;94164.41;;;15.13;43.42
30216;BME280;17028;47.642;8.070;2022-09-21T16:58:45;94170.38;;;15.06;43.62
30216;BME280;17028;47.642;8.070;2022-09-21T17:03:47;94173.88;;;14.91;43.50
30216;BME280;17028;47.642;8.070;2022-09-21T17:08:48;94170.94;;;14.85;43.83
30216;BME280;17028;47.642;8.070;2022-09-21T17:13:50;94180.00;;;14.80;44.04
30216;BME280;17028;47.642;8.070;2022-09-21T17:18:51;94177.53;;;14.82;44.07
30216;BME280;17028;47.642;8.070;2022-09-21T17:23:52;94174.75;;;14.73;43.96
30216;BME280;17028;47.642;8.070;2022-09-21T17:28:53;94182.22;;;14.76;44.07
30216;BME280;17028;47.642;8.070;2022-09-21T17:33:54;94173.47;;;14.74;44.03
30216;BME280;17028;47.642;8.070;2022-09-21T17:38:56;94183.00;;;14.77;44.03
30216;BME280;17028;47.642;8.070;2022-09-21T17:44:13;94188.13;;;14.78;44.21
30216;BME280;17028;47.642;8.070;2022-09-21T17:49:15;94191.28;;;14.71;44.29
30216;BME280;17028;47.642;8.070;2022-09-21T17:54:16;94187.56;;;14.65;44.41
30216;BME280;17028;47.642;8.070;2022-09-21T17:59:30;94195.69;;;14.53;44.47
30216;BME280;17028;47.642;8.070;2022-09-21T18:04:32;94189.63;;;14.36;44.60
30216;BME280;17028;47.642;8.070;2022-09-21T18:09:34;94194.34;;;14.21;44.85
30216;BME280;17028;47.642;8.070;2022-09-21T18:24:50;94212.28;;;13.68;45.83
30216;BME280;17028;47.642;8.070;2022-09-21T18:29:52;94210.84;;;13.45;46.38
30216;BME280;17028;47.642;8.070;2022-09-21T18:40:46;94219.94;;;13.17;46.97
30216;BME280;17028;47.642;8.070;2022-09-21T18:46:00;94222.06;;;13.04;47.29
30216;BME280;17028;47.642;8.070;2022-09-21T18:56:15;94230.75;;;12.88;47.88
30216;BME280;17028;47.642;8.070;2022-09-21T19:01:17;94225.69;;;12.73;48.30
30216;BME280;17028;47.642;8.070;2022-09-21T19:17:23;94227.31;;;12.52;49.13
30216;BME280;17028;47.642;8.070;2022-09-21T19:32:52;94230.22;;;12.39;49.60
30216;BME280;17028;47.642;8.070;2022-09-21T19:37:56;94225.63;;;12.32;49.76
30216;BME280;17028;47.642;8.070;2022-09-21T19:48:13;94224.03;;;12.22;50.14
30216;BME280;17028;47.642;8.070;2022-09-21T19:53:14;94232.56;;;12.18;50.14
30216;BME280;17028;47.642;8.070;2022-09-21T19:58:34;94231.56;;;12.12;50.31
30216;BME280;17028;47.642;8.070;2022-09-21T20:03:54;94227.03;;;12.06;50.47
30216;BME280;17028;47.642;8.070;2022-09-21T20:09:11;94225.91;;;12.03;50.40
30216;BME280;17028;47.642;8.070;2022-09-21T20:14:24;94217.03;;;11.95;50.62
30216;BME280;17028;47.642;8.070;2022-09-21T20:24:45;94214.78;;;11.90;50.62
30216;BME280;17028;47.642;8.070;2022-09-21T20:29:49;94214.25;;;11.82;50.74
30216;BME280;17028;47.642;8.070;2022-09-21T20:34:50;94215.59;;;11.78;50.77
30216;BME280;17028;47.642;8.070;2022-09-21T20:39:51;94215.09;;;11.70;50.86
30216;BME280;17028;47.642;8.070;2022-09-21T20:44:52;94214.00;;;11.67;50.77
30216;BME280;17028;47.642;8.070;2022-09-21T20:49:53;94210.97;;;11.62;50.88
30216;BME280;17028;47.642;8.070;2022-09-21T20:54:54;94220.28;;;11.59;50.84
30216;BME280;17028;47.642;8.070;2022-09-21T20:59:55;94206.41;;;11.55;50.80
30216;BME280;17028;47.642;8.070;2022-09-21T21:04:57;94214.94;;;11.51;50.70
30216;BME280;17028;47.642;8.070;2022-09-21T21:09:59;94225.47;;;11.47;50.63
30216;BME280;17028;47.642;8.070;2022-09-21T21:15:00;94218.31;;;11.46;50.45
30216;BME280;17028;47.642;8.070;2022-09-21T21:20:02;94218.22;;;11.37;50.72
30216;BME280;17028;47.642;8.070;2022-09-21T21:25:03;94215.88;;;11.35;50.69
30216;BME280;17028;47.642;8.070;2022-09-21T21:30:06;94218.34;;;11.33;50.63
30216;BME280;17028;47.642;8.070;2022-09-21T21:35:07;94215.19;;;11.31;50.54
30216;BME280;17028;47.642;8.070;2022-09-21T21:40:09;94214.13;;;11.29;50.55
30216;BME280;17028;47.642;8.070;2022-09-21T21:45:10;94215.91;;;11.23;50.57
30216;BME280;17028;47.642;8.070;2022-09-21T21:50:11;94216.34;;;11.21;50.67
30216;BME280;17028;47.642;8.070;2022-09-21T21:55:12;94213.56;;;11.21;50.54
30216;BME280;17028;47.642;8.070;2022-09-21T22:00:14;94207.75;;;11.15;50.72
30216;BME280;17028;47.642;8.070;2022-09-21T22:05:15;94200.28;;;11.12;50.77
30216;BME280;17028;47.642;8.070;2022-09-21T22:10:16;94191.06;;;11.02;50.78
30216;BME280;17028;47.642;8.070;2022-09-21T22:15:17;94196.19;;;11.04;50.74
30216;BME280;17028;47.642;8.070;2022-09-21T22:20:18;94191.16;;;10.99;50.92
30216;BME280;17028;47.642;8.070;2022-09-21T22:25:19;94191.72;;;10.94;51.08
30216;BME280;17028;47.642;8.070;2022-09-21T22:30:20;94190.84;;;10.84;51.52
30216;BME280;17028;47.642;8.070;2022-09-21T22:35:21;94182.94;;;10.82;51.58
30216;BME280;17028;47.642;8.070;2022-09-21T22:40:22;94189.41;;;10.79;51.59
30216;BME280;17028;47.642;8.070;2022-09-21T22:45:23;94185.38;;;10.80;51.64
30216;BME280;17028;47.642;8.070;2022-09-21T22:50:25;94186.16;;;10.81;51.75
30216;BME280;17028;47.642;8.070;2022-09-21T22:55:27;94178.91;;;10.83;51.78
30216;BME280;17028;47.642;8.070;2022-09-21T23:00:28;94185.59;;;10.86;51.84
30216;BME280;17028;47.642;8.070;2022-09-21T23:05:29;94188.63;;;10.92;51.71
30216;BME280;17028;47.642;8.070;2022-09-21T23:10:30;94182.47;;;10.97;51.70
30216;BME280;17028;47.642;8.070;2022-09-21T23:15:31;94173.75;;;10.95;51.72
30216;BME280;17028;47.642;8.070;2022-09-21T23:20:32;94180.25;;;10.92;51.83
30216;BME280;17028;47.642;8.070;2022-09-21T23:25:33;94184.06;;;10.85;51.81
30216;BME280;17028;47.642;8.070;2022-09-21T23:30:34;94182.47;;;10.84;52.02
30216;BME280;17028;47.642;8.070;2022-09-21T23:35:40;94171.31;;;10.84;52.02
30216;BME280;17028;47.642;8.070;2022-09-21T23:40:41;94177.00;;;10.80;52.07
30216;BME280;17028;47.642;8.070;2022-09-21T23:45:42;94171.53;;;10.77;52.17
30216;BME280;17028;47.642;8.070;2022-09-21T23:50:43;94171.22;;;10.75;52.36
30216;BME280;17028;47.642;8.070;2022-09-21T23:55:44;94167.97;;;10.76;52.27
